sensor_id;sensor_type;location;lat;lon;timestamp;P1;durP1;ratioP1;P2;durP2;ratioP2
30062;SDS011;16889;67.864;24.990;2023-03-14T00:04:45;1.23;;;0.73;;
30062;SDS011;16889;67.864;24.990;2023-03-14T00:09:31;1.15;;;0.70;;
30062;SDS011;16889;67.864;24.990;2023-03-14T00:14:17;2.45;;;0.65;;
30062;SDS011;16889;67.864;24.990;2023-03-14T00:19:03;1.95;;;0.70;;
30062;SDS011;16889;67.864;24.990;2023-03-14T00:23:49;3.75;;;0.70;;
30062;SDS011;16889;67.864;24.990;2023-03-14T00:28:35;2.38;;;0.70;;
30062;SDS011;16889;67.864;24.990;2023-03-14T00:33:22;1.08;;;0.63;;
30062;SDS011;16889;67.864;24.990;2023-03-14T00:38:08;0.82;;;0.60;;
30062;SDS011;16889;67.864;24.990;2023-03-14T00:42:54;1.98;;;0.70;;
30062;SDS011;16889;67.864;24.990;2023-03-14T00:47:39;2.25;;;0.70;;
30062;SDS011;16889;67.864;24.990;2023-03-14T00:52:30;1.90;;;0.73;;
30062;SDS011;16889;67.864;24.990;2023-03-14T00:57:16;4.03;;;0.80;;
30062;SDS011;16889;67.864;24.990;2023-03-14T01:02:02;2.15;;;0.75;;
30062;SDS011;16889;67.864;24.990;2023-03-14T01:06:48;1.75;;;0.60;;
30062;SDS011;16889;67.864;24.990;2023-03-14T01:11:34;1.85;;;0.52;;
30062;SDS011;16889;67.864;24.990;2023-03-14T01:16:22;3.03;;;0.65;;
30062;SDS011;16889;67.864;24.990;2023-03-14T01:21:11;2.53;;;0.73;;
30062;SDS011;16889;67.864;24.990;2023-03-14T01:26:00;2.72;;;0.60;;
30062;SDS011;16889;67.864;24.990;2023-03-14T01:30:46;4.05;;;0.60;;
30062;SDS011;16889;67.864;24.990;2023-03-14T01:35:32;1.85;;;0.50;;
30062;SDS011;16889;67.864;24.990;2023-03-14T01:40:18;2.55;;;0.57;;
30062;SDS011;16889;67.864;24.990;2023-03-14T01:45:04;0.95;;;0.60;;
30062;SDS011;16889;67.864;24.990;2023-03-14T01:49:58;1.50;;;0.50;;
30062;SDS011;16889;67.864;24.990;2023-03-14T01:54:50;2.50;;;0.70;;
30062;SDS011;16889;67.864;24.990;2023-03-14T01:59:40;1.60;;;0.70;;
30062;SDS011;16889;67.864;24.990;2023-03-14T02:04:32;3.13;;;0.70;;
30062;SDS011;16889;67.864;24.990;2023-03-14T02:09:20;2.65;;;0.80;;
30062;SDS011;16889;67.864;24.990;2023-03-14T02:14:07;1.83;;;0.77;;
30062;SDS011;16889;67.864;24.990;2023-03-14T02:18:59;3.88;;;0.65;;
30062;SDS011;16889;67.864;24.990;2023-03-14T02:29:00;2.53;;;0.50;;
30062;SDS011;16889;67.864;24.990;2023-03-14T02:33:46;2.55;;;0.68;;
30062;SDS011;16889;67.864;24.990;2023-03-14T02:43:26;0.57;;;0.57;;
30062;SDS011;16889;67.864;24.990;2023-03-14T02:48:15;1.35;;;0.50;;
30062;SDS011;16889;67.864;24.990;2023-03-14T02:53:04;2.92;;;0.70;;
30062;SDS011;16889;67.864;24.990;2023-03-14T02:57:50;0.97;;;0.50;;
30062;SDS011;16889;67.864;24.990;2023-03-14T03:02:36;6.28;;;0.70;;
30062;SDS011;16889;67.864;24.990;2023-03-14T03:07:22;3.40;;;0.70;;
30062;SDS011;16889;67.864;24.990;2023-03-14T03:12:08;3.88;;;0.70;;
30062;SDS011;16889;67.864;24.990;2023-03-14T03:16:54;0.95;;;0.55;;
30062;SDS011;16889;67.864;24.990;2023-03-14T03:21:40;2.38;;;0.60;;
30062;SDS011;16889;67.864;24.990;2023-03-14T03:26:26;1.27;;;0.70;;
30062;SDS011;16889;67.864;24.990;2023-03-14T03:31:12;0.65;;;0.40;;
30062;SDS011;16889;67.864;24.990;2023-03-14T03:35:58;1.45;;;0.57;;
30062;SDS011;16889;67.864;24.990;2023-03-14T03:40:44;1.17;;;0.50;;
30062;SDS011;16889;67.864;24.990;2023-03-14T03:45:30;2.53;;;0.57;;
30062;SDS011;16889;67.864;24.990;2023-03-14T03:50:16;2.67;;;0.50;;
30062;SDS011;16889;67.864;24.990;2023-03-14T03:55:02;1.27;;;0.50;;
30062;SDS011;16889;67.864;24.990;2023-03-14T03:59:48;2.63;;;0.50;;
30062;SDS011;16889;67.864;24.990;2023-03-14T04:04:34;2.88;;;0.70;;
30062;SDS011;16889;67.864;24.990;2023-03-14T04:09:20;2.42;;;0.55;;
30062;SDS011;16889;67.864;24.990;2023-03-14T04:14:06;3.05;;;0.60;;
30062;SDS011;16889;67.864;24.990;2023-03-14T04:18:52;3.17;;;0.77;;
30062;SDS011;16889;67.864;24.990;2023-03-14T04:23:38;1.13;;;0.47;;
30062;SDS011;16889;67.864;24.990;2023-03-14T04:28:24;9.77;;;1.08;;
30062;SDS011;16889;67.864;24.990;2023-03-14T04:33:10;0.80;;;0.50;;
30062;SDS011;16889;67.864;24.990;2023-03-14T04:38:04;5.18;;;0.60;;
30062;SDS011;16889;67.864;24.990;2023-03-14T04:42:53;3.40;;;0.52;;
30062;SDS011;16889;67.864;24.990;2023-03-14T04:47:39;1.83;;;0.60;;
30062;SDS011;16889;67.864;24.990;2023-03-14T04:52:26;6.32;;;0.70;;
30062;SDS011;16889;67.864;24.990;2023-03-14T04:57:12;1.02;;;0.50;;
30062;SDS011;16889;67.864;24.990;2023-03-14T05:01:58;1.60;;;0.50;;
30062;SDS011;16889;67.864;24.990;2023-03-14T05:06:44;2.28;;;0.70;;
30062;SDS011;16889;67.864;24.990;2023-03-14T05:11:30;0.95;;;0.50;;
30062;SDS011;16889;67.864;24.990;2023-03-14T05:16:17;5.32;;;0.80;;
30062;SDS011;16889;67.864;24.990;2023-03-14T05:21:03;2.53;;;0.70;;
30062;SDS011;16889;67.864;24.990;2023-03-14T05:25:49;2.63;;;0.70;;
30062;SDS011;16889;67.864;24.990;2023-03-14T05:30:35;0.90;;;0.55;;
30062;SDS011;16889;67.864;24.990;2023-03-14T05:35:22;1.60;;;0.90;;
30062;SDS011;16889;67.864;24.990;2023-03-14T05:40:08;4.80;;;1.40;;
30062;SDS011;16889;67.864;24.990;2023-03-14T05:44:54;4.82;;;1.05;;
30062;SDS011;16889;67.864;24.990;2023-03-14T05:49:40;6.10;;;1.15;;
30062;SDS011;16889;67.864;24.990;2023-03-14T05:54:26;4.75;;;0.63;;
30062;SDS011;16889;67.864;24.990;2023-03-14T05:59:12;3.45;;;0.77;;
30062;SDS011;16889;67.864;24.990;2023-03-14T06:03:59;2.05;;;0.68;;
30062;SDS011;16889;67.864;24.990;2023-03-14T06:08:45;1.30;;;0.60;;
30062;SDS011;16889;67.864;24.990;2023-03-14T06:13:32;1.60;;;0.73;;
30062;SDS011;16889;67.864;24.990;2023-03-14T06:18:17;0.60;;;0.50;;
30062;SDS011;16889;67.864;24.990;2023-03-14T06:23:03;1.38;;;0.70;;
30062;SDS011;16889;67.864;24.990;2023-03-14T06:27:50;2.78;;;0.75;;
30062;SDS011;16889;67.864;24.990;2023-03-14T06:32:36;3.88;;;0.90;;
30062;SDS011;16889;67.864;24.990;2023-03-14T06:37:22;5.00;;;0.60;;
30062;SDS011;16889;67.864;24.990;2023-03-14T06:42:08;2.33;;;0.50;;
30062;SDS011;16889;67.864;24.990;2023-03-14T06:46:54;0.90;;;0.53;;
30062;SDS011;16889;67.864;24.990;2023-03-14T06:51:40;2.35;;;0.70;;
30062;SDS011;16889;67.864;24.990;2023-03-14T06:56:26;1.42;;;0.60;;
30062;SDS011;16889;67.864;24.990;2023-03-14T07:01:46;1.03;;;0.57;;
30062;SDS011;16889;67.864;24.990;2023-03-14T07:06:25;3.03;;;0.73;;
30062;SDS011;16889;67.864;24.990;2023-03-14T07:11:11;4.03;;;0.70;;
30062;SDS011;16889;67.864;24.990;2023-03-14T07:15:57;1.58;;;0.60;;
30062;SDS011;16889;67.864;24.990;2023-03-14T07:20:44;4.32;;;0.75;;
30062;SDS011;16889;67.864;24.990;2023-03-14T07:25:31;3.17;;;0.60;;
30062;SDS011;16889;67.864;24.990;2023-03-14T07:30:17;0.85;;;0.50;;
30062;SDS011;16889;67.864;24.990;2023-03-14T07:35:03;2.47;;;0.70;;
30062;SDS011;16889;67.864;24.990;2023-03-14T07:39:49;6.93;;;0.70;;
30062;SDS011;16889;67.864;24.990;2023-03-14T07:44:35;1.27;;;0.55;;
30062;SDS011;16889;67.864;24.990;2023-03-14T07:49:21;1.02;;;0.52;;
30062;SDS011;16889;67.864;24.990;2023-03-14T07:54:07;2.53;;;0.60;;
30062;SDS011;16889;67.864;24.990;2023-03-14T07:58:55;2.47;;;0.52;;
30062;SDS011;16889;67.864;24.990;2023-03-14T08:08:28;2.80;;;0.50;;
30062;SDS011;16889;67.864;24.990;2023-03-14T08:13:14;2.97;;;0.73;;
30062;SDS011;16889;67.864;24.990;2023-03-14T08:18:00;2.13;;;1.03;;
30062;SDS011;16889;67.864;24.990;2023-03-14T08:22:46;2.67;;;0.70;;
30062;SDS011;16889;67.864;24.990;2023-03-14T08:27:32;0.73;;;0.45;;
30062;SDS011;16889;67.864;24.990;2023-03-14T08:32:18;0.88;;;0.47;;
30062;SDS011;16889;67.864;24.990;2023-03-14T08:37:08;1.20;;;0.50;;
30062;SDS011;16889;67.864;24.990;2023-03-14T08:41:54;4.35;;;0.60;;
30062;SDS011;16889;67.864;24.990;2023-03-14T08:46:40;0.47;;;0.40;;
30062;SDS011;16889;67.864;24.990;2023-03-14T08:51:26;2.03;;;0.90;;
30062;SDS011;16889;67.864;24.990;2023-03-14T08:56:22;3.78;;;1.10;;
30062;SDS011;16889;67.864;24.990;2023-03-14T09:01:08;3.35;;;0.80;;
30062;SDS011;16889;67.864;24.990;2023-03-14T09:06:01;1.17;;;0.50;;
30062;SDS011;16889;67.864;24.990;2023-03-14T09:10:49;2.08;;;0.63;;
30062;SDS011;16889;67.864;24.990;2023-03-14T09:15:34;2.15;;;0.50;;
30062;SDS011;16889;67.864;24.990;2023-03-14T09:20:20;0.65;;;0.60;;
30062;SDS011;16889;67.864;24.990;2023-03-14T09:25:06;2.45;;;0.80;;
30062;SDS011;16889;67.864;24.990;2023-03-14T09:29:53;1.98;;;0.77;;
30062;SDS011;16889;67.864;24.990;2023-03-14T09:34:39;3.35;;;0.60;;
30062;SDS011;16889;67.864;24.990;2023-03-14T09:39:25;1.75;;;0.45;;
30062;SDS011;16889;67.864;24.990;2023-03-14T09:49:41;1.55;;;0.60;;
30062;SDS011;16889;67.864;24.990;2023-03-14T09:54:38;2.53;;;0.60;;
30062;SDS011;16889;67.864;24.990;2023-03-14T09:59:28;1.52;;;0.40;;
30062;SDS011;16889;67.864;24.990;2023-03-14T10:04:17;1.13;;;0.50;;
30062;SDS011;16889;67.864;24.990;2023-03-14T10:09:11;1.27;;;0.63;;
30062;SDS011;16889;67.864;24.990;2023-03-14T10:14:10;5.85;;;0.70;;
30062;SDS011;16889;67.864;24.990;2023-03-14T10:19:03;1.80;;;0.70;;
30062;SDS011;16889;67.864;24.990;2023-03-14T10:23:51;1.38;;;0.63;;
30062;SDS011;16889;67.864;24.990;2023-03-14T10:28:43;1.27;;;0.50;;
30062;SDS011;16889;67.864;24.990;2023-03-14T10:33:32;1.00;;;0.65;;
30062;SDS011;16889;67.864;24.990;2023-03-14T10:38:20;0.70;;;0.63;;
30062;SDS011;16889;67.864;24.990;2023-03-14T10:43:13;1.02;;;0.57;;
30062;SDS011;16889;67.864;24.990;2023-03-14T10:48:07;1.30;;;0.73;;
30062;SDS011;16889;67.864;24.990;2023-03-14T10:53:04;1.52;;;0.65;;
30062;SDS011;16889;67.864;24.990;2023-03-14T10:57:57;1.50;;;0.60;;
30062;SDS011;16889;67.864;24.990;2023-03-14T11:02:49;5.93;;;0.70;;
30062;SDS011;16889;67.864;24.990;2023-03-14T11:08:09;1.25;;;0.70;;
30062;SDS011;16889;67.864;24.990;2023-03-14T11:13:26;2.90;;;0.55;;
30062;SDS011;16889;67.864;24.990;2023-03-14T11:18:45;0.68;;;0.60;;
30062;SDS011;16889;67.864;24.990;2023-03-14T11:34:55;0.82;;;0.60;;
30062;SDS011;16889;67.864;24.990;2023-03-14T11:39:49;1.48;;;0.52;;
30062;SDS011;16889;67.864;24.990;2023-03-14T11:44:49;4.65;;;0.70;;
30062;SDS011;16889;67.864;24.990;2023-03-14T11:49:39;3.50;;;0.70;;
30062;SDS011;16889;67.864;24.990;2023-03-14T11:54:39;2.33;;;0.88;;
30062;SDS011;16889;67.864;24.990;2023-03-14T12:00:25;1.73;;;0.73;;
30062;SDS011;16889;67.864;24.990;2023-03-14T12:10:02;0.50;;;0.43;;
30062;SDS011;16889;67.864;24.990;2023-03-14T12:15:02;0.75;;;0.40;;
30062;SDS011;16889;67.864;24.990;2023-03-14T12:19:59;1.03;;;0.63;;
30062;SDS011;16889;67.864;24.990;2023-03-14T12:25:13;1.75;;;0.80;;
30062;SDS011;16889;67.864;24.990;2023-03-14T12:30:05;1.05;;;0.60;;
30062;SDS011;16889;67.864;24.990;2023-03-14T12:40:41;1.58;;;0.90;;
30062;SDS011;16889;67.864;24.990;2023-03-14T12:45:41;0.82;;;0.52;;
30062;SDS011;16889;67.864;24.990;2023-03-14T13:00:42;1.20;;;0.65;;
30062;SDS011;16889;67.864;24.990;2023-03-14T13:05:51;1.60;;;0.60;;
30062;SDS011;16889;67.864;24.990;2023-03-14T13:10:41;0.43;;;0.40;;
30062;SDS011;16889;67.864;24.990;2023-03-14T13:15:33;2.13;;;0.50;;
30062;SDS011;16889;67.864;24.990;2023-03-14T13:20:30;3.50;;;0.68;;
30062;SDS011;16889;67.864;24.990;2023-03-14T13:25:19;2.30;;;0.60;;
30062;SDS011;16889;67.864;24.990;2023-03-14T13:35:28;0.50;;;0.50;;
30062;SDS011;16889;67.864;24.990;2023-03-14T13:40:29;0.60;;;0.40;;
30062;SDS011;16889;67.864;24.990;2023-03-14T13:45:16;0.93;;;0.60;;
30062;SDS011;16889;67.864;24.990;2023-03-14T13:50:02;1.65;;;0.50;;
30062;SDS011;16889;67.864;24.990;2023-03-14T13:54:52;0.90;;;0.60;;
30062;SDS011;16889;67.864;24.990;2023-03-14T13:59:39;2.38;;;0.60;;
30062;SDS011;16889;67.864;24.990;2023-03-14T14:04:26;1.52;;;0.60;;
30062;SDS011;16889;67.864;24.990;2023-03-14T14:09:17;1.38;;;0.50;;
30062;SDS011;16889;67.864;24.990;2023-03-14T14:14:11;2.13;;;0.50;;
30062;SDS011;16889;67.864;24.990;2023-03-14T14:19:04;4.35;;;0.50;;
30062;SDS011;16889;67.864;24.990;2023-03-14T14:23:51;2.40;;;0.70;;
30062;SDS011;16889;67.864;24.990;2023-03-14T14:33:25;1.27;;;0.50;;
30062;SDS011;16889;67.864;24.990;2023-03-14T14:38:12;2.60;;;0.57;;
30062;SDS011;16889;67.864;24.990;2023-03-14T14:43:06;3.28;;;0.70;;
30062;SDS011;16889;67.864;24.990;2023-03-14T14:47:53;0.80;;;0.60;;
30062;SDS011;16889;67.864;24.990;2023-03-14T14:52:43;1.27;;;0.70;;
30062;SDS011;16889;67.864;24.990;2023-03-14T14:57:37;2.33;;;0.93;;
30062;SDS011;16889;67.864;24.990;2023-03-14T15:02:30;1.55;;;0.73;;
30062;SDS011;16889;67.864;24.990;2023-03-14T15:07:30;1.08;;;0.50;;
30062;SDS011;16889;67.864;24.990;2023-03-14T15:12:18;2.65;;;0.90;;
30062;SDS011;16889;67.864;24.990;2023-03-14T15:17:08;3.72;;;0.75;;
30062;SDS011;16889;67.864;24.990;2023-03-14T15:21:59;1.00;;;0.65;;
30062;SDS011;16889;67.864;24.990;2023-03-14T15:26:47;2.95;;;0.73;;
30062;SDS011;16889;67.864;24.990;2023-03-14T15:31:39;1.20;;;0.60;;
30062;SDS011;16889;67.864;24.990;2023-03-14T15:36:26;1.47;;;0.70;;
30062;SDS011;16889;67.864;24.990;2023-03-14T15:41:16;1.95;;;0.50;;
30062;SDS011;16889;67.864;24.990;2023-03-14T15:46:02;1.42;;;0.55;;
30062;SDS011;16889;67.864;24.990;2023-03-14T15:50:51;0.75;;;0.50;;
30062;SDS011;16889;67.864;24.990;2023-03-14T15:55:37;1.40;;;0.50;;
30062;SDS011;16889;67.864;24.990;2023-03-14T16:00:23;1.93;;;0.63;;
30062;SDS011;16889;67.864;24.990;2023-03-14T16:05:11;5.38;;;0.73;;
30062;SDS011;16889;67.864;24.990;2023-03-14T16:09:57;4.65;;;0.70;;
30062;SDS011;16889;67.864;24.990;2023-03-14T16:14:46;0.50;;;0.45;;
30062;SDS011;16889;67.864;24.990;2023-03-14T16:19:33;1.75;;;0.40;;
30062;SDS011;16889;67.864;24.990;2023-03-14T16:24:19;0.65;;;0.50;;
30062;SDS011;16889;67.864;24.990;2023-03-14T16:29:05;1.73;;;0.50;;
30062;SDS011;16889;67.864;24.990;2023-03-14T16:33:51;1.48;;;0.60;;
30062;SDS011;16889;67.864;24.990;2023-03-14T16:38:38;0.95;;;0.50;;
30062;SDS011;16889;67.864;24.990;2023-03-14T16:43:26;3.45;;;0.52;;
30062;SDS011;16889;67.864;24.990;2023-03-14T16:48:13;1.30;;;0.70;;
30062;SDS011;16889;67.864;24.990;2023-03-14T16:52:59;4.93;;;0.68;;
30062;SDS011;16889;67.864;24.990;2023-03-14T16:57:46;0.70;;;0.40;;
30062;SDS011;16889;67.864;24.990;2023-03-14T17:02:32;3.10;;;0.65;;
30062;SDS011;16889;67.864;24.990;2023-03-14T17:07:18;3.33;;;0.68;;
30062;SDS011;16889;67.864;24.990;2023-03-14T17:12:05;0.95;;;0.60;;
30062;SDS011;16889;67.864;24.990;2023-03-14T17:16:52;2.35;;;0.63;;
30062;SDS011;16889;67.864;24.990;2023-03-14T17:21:38;0.98;;;0.40;;
30062;SDS011;16889;67.864;24.990;2023-03-14T17:26:24;2.38;;;0.60;;
30062;SDS011;16889;67.864;24.990;2023-03-14T17:31:17;1.42;;;0.70;;
30062;SDS011;16889;67.864;24.990;2023-03-14T17:36:04;2.22;;;0.50;;
30062;SDS011;16889;67.864;24.990;2023-03-14T17:45:37;2.75;;;0.68;;
30062;SDS011;16889;67.864;24.990;2023-03-14T17:50:56;0.75;;;0.50;;
30062;SDS011;16889;67.864;24.990;2023-03-14T17:55:38;0.40;;;0.40;;
30062;SDS011;16889;67.864;24.990;2023-03-14T18:00:24;3.28;;;0.70;;
30062;SDS011;16889;67.864;24.990;2023-03-14T18:05:10;1.98;;;0.47;;
30062;SDS011;16889;67.864;24.990;2023-03-14T18:09:58;3.53;;;1.38;;
30062;SDS011;16889;67.864;24.990;2023-03-14T18:14:44;1.33;;;0.60;;
30062;SDS011;16889;67.864;24.990;2023-03-14T18:19:31;1.40;;;0.70;;
30062;SDS011;16889;67.864;24.990;2023-03-14T18:24:17;2.95;;;0.60;;
30062;SDS011;16889;67.864;24.990;2023-03-14T18:29:05;1.63;;;0.50;;
30062;SDS011;16889;67.864;24.990;2023-03-14T18:33:53;1.10;;;0.60;;
30062;SDS011;16889;67.864;24.990;2023-03-14T18:38:42;5.20;;;0.60;;
30062;SDS011;16889;67.864;24.990;2023-03-14T18:43:32;1.20;;;0.60;;
30062;SDS011;16889;67.864;24.990;2023-03-14T18:48:19;0.85;;;0.57;;
30062;SDS011;16889;67.864;24.990;2023-03-14T18:53:05;1.77;;;0.63;;
30062;SDS011;16889;67.864;24.990;2023-03-14T18:57:51;1.10;;;0.50;;
30062;SDS011;16889;67.864;24.990;2023-03-14T19:02:37;2.97;;;0.60;;
30062;SDS011;16889;67.864;24.990;2023-03-14T19:07:23;0.53;;;0.53;;
30062;SDS011;16889;67.864;24.990;2023-03-14T19:12:09;1.58;;;0.70;;
30062;SDS011;16889;67.864;24.990;2023-03-14T19:16:56;1.37;;;0.70;;
30062;SDS011;16889;67.864;24.990;2023-03-14T19:21:42;1.38;;;0.60;;
30062;SDS011;16889;67.864;24.990;2023-03-14T19:26:28;3.33;;;0.60;;
30062;SDS011;16889;67.864;24.990;2023-03-14T19:31:16;2.15;;;0.70;;
30062;SDS011;16889;67.864;24.990;2023-03-14T19:40:52;1.48;;;0.80;;
30062;SDS011;16889;67.864;24.990;2023-03-14T19:45:42;1.98;;;0.77;;
30062;SDS011;16889;67.864;24.990;2023-03-14T19:50:28;1.70;;;0.70;;
30062;SDS011;16889;67.864;24.990;2023-03-14T19:55:15;3.92;;;1.30;;
30062;SDS011;16889;67.864;24.990;2023-03-14T20:00:01;15.93;;;0.83;;
30062;SDS011;16889;67.864;24.990;2023-03-14T20:04:49;1.00;;;0.60;;
30062;SDS011;16889;67.864;24.990;2023-03-14T20:09:38;1.42;;;0.70;;
30062;SDS011;16889;67.864;24.990;2023-03-14T20:14:25;1.00;;;0.73;;
30062;SDS011;16889;67.864;24.990;2023-03-14T20:19:11;2.57;;;0.90;;
30062;SDS011;16889;67.864;24.990;2023-03-14T20:23:59;7.65;;;0.90;;
30062;SDS011;16889;67.864;24.990;2023-03-14T20:28:47;2.53;;;1.00;;
30062;SDS011;16889;67.864;24.990;2023-03-14T20:33:33;1.52;;;1.08;;
30062;SDS011;16889;67.864;24.990;2023-03-14T20:38:19;2.47;;;1.20;;
30062;SDS011;16889;67.864;24.990;2023-03-14T20:43:05;3.15;;;1.23;;
30062;SDS011;16889;67.864;24.990;2023-03-14T20:47:52;3.92;;;1.17;;
30062;SDS011;16889;67.864;24.990;2023-03-14T20:52:39;2.43;;;1.23;;
30062;SDS011;16889;67.864;24.990;2023-03-14T20:57:26;3.08;;;1.33;;
30062;SDS011;16889;67.864;24.990;2023-03-14T21:02:15;4.05;;;1.23;;
30062;SDS011;16889;67.864;24.990;2023-03-14T21:07:02;2.60;;;1.30;;
30062;SDS011;16889;67.864;24.990;2023-03-14T21:11:48;2.40;;;1.00;;
30062;SDS011;16889;67.864;24.990;2023-03-14T21:16:34;1.50;;;1.20;;
30062;SDS011;16889;67.864;24.990;2023-03-14T21:21:20;3.55;;;1.13;;
30062;SDS011;16889;67.864;24.990;2023-03-14T21:26:08;5.03;;;1.55;;
30062;SDS011;16889;67.864;24.990;2023-03-14T21:30:54;3.40;;;1.40;;
30062;SDS011;16889;67.864;24.990;2023-03-14T21:35:48;3.05;;;1.25;;
30062;SDS011;16889;67.864;24.990;2023-03-14T21:40:37;2.03;;;1.20;;
30062;SDS011;16889;67.864;24.990;2023-03-14T21:45:24;3.00;;;1.50;;
30062;SDS011;16889;67.864;24.990;2023-03-14T21:50:13;5.63;;;1.30;;
30062;SDS011;16889;67.864;24.990;2023-03-14T21:54:59;4.00;;;1.50;;
30062;SDS011;16889;67.864;24.990;2023-03-14T21:59:49;2.95;;;1.30;;
30062;SDS011;16889;67.864;24.990;2023-03-14T22:04:36;3.28;;;1.20;;
30062;SDS011;16889;67.864;24.990;2023-03-14T22:09:23;4.63;;;1.50;;
30062;SDS011;16889;67.864;24.990;2023-03-14T22:14:09;1.80;;;1.20;;
30062;SDS011;16889;67.864;24.990;2023-03-14T22:18:58;2.97;;;1.38;;
30062;SDS011;16889;67.864;24.990;2023-03-14T22:23:44;3.80;;;1.50;;
30062;SDS011;16889;67.864;24.990;2023-03-14T22:28:30;1.52;;;1.10;;
30062;SDS011;16889;67.864;24.990;2023-03-14T22:33:17;2.90;;;1.10;;
30062;SDS011;16889;67.864;24.990;2023-03-14T22:38:04;2.97;;;1.42;;
30062;SDS011;16889;67.864;24.990;2023-03-14T22:42:51;4.83;;;1.50;;
30062;SDS011;16889;67.864;24.990;2023-03-14T22:47:38;4.60;;;1.70;;
30062;SDS011;16889;67.864;24.990;2023-03-14T22:52:28;3.60;;;1.40;;
30062;SDS011;16889;67.864;24.990;2023-03-14T22:57:17;5.93;;;1.50;;
30062;SDS011;16889;67.864;24.990;2023-03-14T23:02:04;6.00;;;1.40;;
30062;SDS011;16889;67.864;24.990;2023-03-14T23:06:50;3.65;;;1.20;;
30062;SDS011;16889;67.864;24.990;2023-03-14T23:11:36;3.33;;;1.23;;
30062;SDS011;16889;67.864;24.990;2023-03-14T23:16:29;4.32;;;1.42;;
30062;SDS011;16889;67.864;24.990;2023-03-14T23:21:19;3.13;;;1.20;;
30062;SDS011;16889;67.864;24.990;2023-03-14T23:26:09;5.35;;;1.40;;
30062;SDS011;16889;67.864;24.990;2023-03-14T23:30:56;6.93;;;1.35;;
30062;SDS011;16889;67.864;24.990;2023-03-14T23:35:45;2.30;;;1.38;;
30062;SDS011;16889;67.864;24.990;2023-03-14T23:40:31;2.13;;;1.02;;
30062;SDS011;16889;67.864;24.990;2023-03-14T23:45:17;2.85;;;1.23;;
30062;SDS011;16889;67.864;24.990;2023-03-14T23:50:03;4.15;;;1.30;;
30062;SDS011;16889;67.864;24.990;2023-03-14T23:54:49;3.10;;;1.33;;
30062;SDS011;16889;67.864;24.990;2023-03-14T23:59:36;3.55;;;1.27;;
